sensor_id;sensor_type;location;lat;lon;timestamp;temperature;humidity
56861;DHT22;42744;51.094;3.490;2024-03-06T00:00:06;6.50;99.90
56861;DHT22;42744;51.094;3.490;2024-03-06T00:02:35;6.50;99.90
56861;DHT22;42744;51.094;3.490;2024-03-06T00:05:02;6.50;99.90
56861;DHT22;42744;51.094;3.490;2024-03-06T00:07:28;6.50;99.90
56861;DHT22;42744;51.094;3.490;2024-03-06T00:09:54;6.50;99.90
56861;DHT22;42744;51.094;3.490;2024-03-06T00:12:20;6.50;99.90
56861;DHT22;42744;51.094;3.490;2024-03-06T00:14:46;6.50;99.90
56861;DHT22;42744;51.094;3.490;2024-03-06T00:17:12;6.50;99.90
56861;DHT22;42744;51.094;3.490;2024-03-06T00:19:38;6.50;99.90
56861;DHT22;42744;51.094;3.490;2024-03-06T00:22:04;6.50;99.90
56861;DHT22;42744;51.094;3.490;2024-03-06T00:24:30;6.50;99.90
56861;DHT22;42744;51.094;3.490;2024-03-06T00:26:58;6.50;99.90
56861;DHT22;42744;51.094;3.490;2024-03-06T00:29:24;6.50;99.90
56861;DHT22;42744;51.094;3.490;2024-03-06T00:31:52;6.50;99.90
56861;DHT22;42744;51.094;3.490;2024-03-06T00:34:17;6.50;99.90
56861;DHT22;42744;51.094;3.490;2024-03-06T00:36:43;6.50;99.90
56861;DHT22;42744;51.094;3.490;2024-03-06T00:39:10;6.50;99.90
56861;DHT22;42744;51.094;3.490;2024-03-06T00:41:36;6.50;99.90
56861;DHT22;42744;51.094;3.490;2024-03-06T00:44:03;6.50;99.90
56861;DHT22;42744;51.094;3.490;2024-03-06T00:46:29;6.50;99.90
56861;DHT22;42744;51.094;3.490;2024-03-06T00:48:55;6.50;99.90
56861;DHT22;42744;51.094;3.490;2024-03-06T00:51:21;6.40;99.90
56861;DHT22;42744;51.094;3.490;2024-03-06T00:53:47;6.40;99.90
56861;DHT22;42744;51.094;3.490;2024-03-06T00:56:13;6.40;99.90
56861;DHT22;42744;51.094;3.490;2024-03-06T00:58:39;6.40;99.90
56861;DHT22;42744;51.094;3.490;2024-03-06T01:01:05;6.40;99.90
56861;DHT22;42744;51.094;3.490;2024-03-06T01:03:31;6.40;99.90
56861;DHT22;42744;51.094;3.490;2024-03-06T01:05:57;6.40;99.90
56861;DHT22;42744;51.094;3.490;2024-03-06T01:08:25;6.40;99.90
56861;DHT22;42744;51.094;3.490;2024-03-06T01:10:51;6.30;99.90
56861;DHT22;42744;51.094;3.490;2024-03-06T01:13:19;6.30;99.90
56861;DHT22;42744;51.094;3.490;2024-03-06T01:15:45;6.20;99.90
56861;DHT22;42744;51.094;3.490;2024-03-06T01:18:11;6.20;99.90
56861;DHT22;42744;51.094;3.490;2024-03-06T01:20:37;6.20;99.90
56861;DHT22;42744;51.094;3.490;2024-03-06T01:23:04;6.20;99.90
56861;DHT22;42744;51.094;3.490;2024-03-06T01:25:30;6.20;99.90
56861;DHT22;42744;51.094;3.490;2024-03-06T01:27:56;6.10;99.90
56861;DHT22;42744;51.094;3.490;2024-03-06T01:30:22;6.10;99.90
56861;DHT22;42744;51.094;3.490;2024-03-06T01:32:48;6.10;99.90
56861;DHT22;42744;51.094;3.490;2024-03-06T01:35:14;6.00;99.90
56861;DHT22;42744;51.094;3.490;2024-03-06T01:37:40;6.00;99.90
56861;DHT22;42744;51.094;3.490;2024-03-06T01:40:06;6.00;99.90
56861;DHT22;42744;51.094;3.490;2024-03-06T01:42:33;6.00;99.90
56861;DHT22;42744;51.094;3.490;2024-03-06T01:44:59;6.00;99.90
56861;DHT22;42744;51.094;3.490;2024-03-06T01:47:25;5.90;99.90
56861;DHT22;42744;51.094;3.490;2024-03-06T01:49:51;5.90;99.90
56861;DHT22;42744;51.094;3.490;2024-03-06T01:52:19;5.90;99.90
56861;DHT22;42744;51.094;3.490;2024-03-06T01:54:48;5.90;99.90
56861;DHT22;42744;51.094;3.490;2024-03-06T01:57:16;5.90;99.90
56861;DHT22;42744;51.094;3.490;2024-03-06T01:59:43;6.00;99.90
56861;DHT22;42744;51.094;3.490;2024-03-06T02:02:09;6.00;99.90
56861;DHT22;42744;51.094;3.490;2024-03-06T02:04:37;5.90;99.90
56861;DHT22;42744;51.094;3.490;2024-03-06T02:07:08;5.90;99.90
56861;DHT22;42744;51.094;3.490;2024-03-06T02:09:37;5.90;99.90
56861;DHT22;42744;51.094;3.490;2024-03-06T02:12:03;5.90;99.90
56861;DHT22;42744;51.094;3.490;2024-03-06T02:14:30;5.80;99.90
56861;DHT22;42744;51.094;3.490;2024-03-06T02:16:58;5.80;99.90
56861;DHT22;42744;51.094;3.490;2024-03-06T02:19:24;5.80;99.90
56861;DHT22;42744;51.094;3.490;2024-03-06T02:21:52;5.80;99.90
56861;DHT22;42744;51.094;3.490;2024-03-06T02:24:20;5.80;99.90
56861;DHT22;42744;51.094;3.490;2024-03-06T02:26:50;5.70;99.90
56861;DHT22;42744;51.094;3.490;2024-03-06T02:29:18;5.70;99.90
56861;DHT22;42744;51.094;3.490;2024-03-06T02:31:44;5.60;99.90
56861;DHT22;42744;51.094;3.490;2024-03-06T02:34:10;5.60;99.90
56861;DHT22;42744;51.094;3.490;2024-03-06T02:36:36;5.50;99.90
56861;DHT22;42744;51.094;3.490;2024-03-06T02:39:02;5.50;99.90
56861;DHT22;42744;51.094;3.490;2024-03-06T02:41:37;5.40;99.90
56861;DHT22;42744;51.094;3.490;2024-03-06T02:44:03;5.40;99.90
56861;DHT22;42744;51.094;3.490;2024-03-06T02:46:29;5.40;99.90
56861;DHT22;42744;51.094;3.490;2024-03-06T02:48:55;5.30;99.90
56861;DHT22;42744;51.094;3.490;2024-03-06T02:51:22;5.30;99.90
56861;DHT22;42744;51.094;3.490;2024-03-06T02:53:47;5.30;99.90
56861;DHT22;42744;51.094;3.490;2024-03-06T02:56:19;5.20;99.90
56861;DHT22;42744;51.094;3.490;2024-03-06T02:58:46;5.20;99.90
56861;DHT22;42744;51.094;3.490;2024-03-06T03:01:11;5.10;99.90
56861;DHT22;42744;51.094;3.490;2024-03-06T03:03:42;5.10;99.90
56861;DHT22;42744;51.094;3.490;2024-03-06T03:06:10;5.00;99.90
56861;DHT22;42744;51.094;3.490;2024-03-06T03:08:37;5.00;99.90
56861;DHT22;42744;51.094;3.490;2024-03-06T03:11:03;5.00;99.90
56861;DHT22;42744;51.094;3.490;2024-03-06T03:13:30;4.90;99.90
56861;DHT22;42744;51.094;3.490;2024-03-06T03:15:59;4.90;99.90
56861;DHT22;42744;51.094;3.490;2024-03-06T03:18:26;4.90;99.90
56861;DHT22;42744;51.094;3.490;2024-03-06T03:20:52;4.90;99.90
56861;DHT22;42744;51.094;3.490;2024-03-06T03:23:18;4.90;99.90
56861;DHT22;42744;51.094;3.490;2024-03-06T03:25:50;4.90;99.90
56861;DHT22;42744;51.094;3.490;2024-03-06T03:28:16;4.90;99.90
56861;DHT22;42744;51.094;3.490;2024-03-06T03:30:43;5.00;99.90
56861;DHT22;42744;51.094;3.490;2024-03-06T03:33:12;5.00;99.90
56861;DHT22;42744;51.094;3.490;2024-03-06T03:35:38;5.00;99.90
56861;DHT22;42744;51.094;3.490;2024-03-06T03:38:10;5.00;99.90
56861;DHT22;42744;51.094;3.490;2024-03-06T03:40:36;4.90;99.90
56861;DHT22;42744;51.094;3.490;2024-03-06T03:43:02;4.90;99.90
56861;DHT22;42744;51.094;3.490;2024-03-06T03:45:35;4.90;99.90
56861;DHT22;42744;51.094;3.490;2024-03-06T03:48:02;4.90;99.90
56861;DHT22;42744;51.094;3.490;2024-03-06T03:50:28;4.80;99.90
56861;DHT22;42744;51.094;3.490;2024-03-06T03:52:55;4.80;99.90
56861;DHT22;42744;51.094;3.490;2024-03-06T03:55:27;4.80;99.90
56861;DHT22;42744;51.094;3.490;2024-03-06T03:57:55;4.70;99.90
56861;DHT22;42744;51.094;3.490;2024-03-06T04:00:22;4.60;99.90
56861;DHT22;42744;51.094;3.490;2024-03-06T04:02:52;4.60;99.90
56861;DHT22;42744;51.094;3.490;2024-03-06T04:05:18;4.60;99.90
56861;DHT22;42744;51.094;3.490;2024-03-06T04:07:44;4.60;99.90
56861;DHT22;42744;51.094;3.490;2024-03-06T04:10:10;4.60;99.90
56861;DHT22;42744;51.094;3.490;2024-03-06T04:12:39;4.70;99.90
56861;DHT22;42744;51.094;3.490;2024-03-06T04:15:05;4.70;99.90
56861;DHT22;42744;51.094;3.490;2024-03-06T04:17:32;4.80;99.90
56861;DHT22;42744;51.094;3.490;2024-03-06T04:19:57;4.90;99.90
56861;DHT22;42744;51.094;3.490;2024-03-06T04:22:23;4.90;99.90
56861;DHT22;42744;51.094;3.490;2024-03-06T04:24:49;5.00;99.90
56861;DHT22;42744;51.094;3.490;2024-03-06T04:27:15;5.10;99.90
56861;DHT22;42744;51.094;3.490;2024-03-06T04:29:42;5.10;99.90
56861;DHT22;42744;51.094;3.490;2024-03-06T04:32:08;5.20;99.90
56861;DHT22;42744;51.094;3.490;2024-03-06T04:34:37;5.30;99.90
56861;DHT22;42744;51.094;3.490;2024-03-06T04:37:03;5.30;99.90
56861;DHT22;42744;51.094;3.490;2024-03-06T04:39:29;5.40;99.90
56861;DHT22;42744;51.094;3.490;2024-03-06T04:41:58;5.40;99.90
56861;DHT22;42744;51.094;3.490;2024-03-06T04:44:24;5.40;99.90
56861;DHT22;42744;51.094;3.490;2024-03-06T04:46:50;5.50;99.90
56861;DHT22;42744;51.094;3.490;2024-03-06T04:49:16;5.50;99.90
56861;DHT22;42744;51.094;3.490;2024-03-06T04:51:42;5.60;99.90
56861;DHT22;42744;51.094;3.490;2024-03-06T04:54:08;5.60;99.90
56861;DHT22;42744;51.094;3.490;2024-03-06T04:56:34;5.70;99.90
56861;DHT22;42744;51.094;3.490;2024-03-06T04:59:03;5.70;99.90
56861;DHT22;42744;51.094;3.490;2024-03-06T05:01:31;5.70;99.90
56861;DHT22;42744;51.094;3.490;2024-03-06T05:04:00;5.80;99.90
56861;DHT22;42744;51.094;3.490;2024-03-06T05:06:26;5.80;99.90
56861;DHT22;42744;51.094;3.490;2024-03-06T05:08:52;5.80;99.90
56861;DHT22;42744;51.094;3.490;2024-03-06T05:11:18;5.80;99.90
56861;DHT22;42744;51.094;3.490;2024-03-06T05:13:44;5.90;99.90
56861;DHT22;42744;51.094;3.490;2024-03-06T05:16:10;5.90;99.90
56861;DHT22;42744;51.094;3.490;2024-03-06T05:18:36;5.90;99.90
56861;DHT22;42744;51.094;3.490;2024-03-06T05:21:02;5.90;99.90
56861;DHT22;42744;51.094;3.490;2024-03-06T05:23:28;5.90;99.90
56861;DHT22;42744;51.094;3.490;2024-03-06T05:25:54;5.90;99.90
56861;DHT22;42744;51.094;3.490;2024-03-06T05:28:19;5.90;99.90
56861;DHT22;42744;51.094;3.490;2024-03-06T05:30:46;5.90;99.90
56861;DHT22;42744;51.094;3.490;2024-03-06T05:33:15;5.90;99.90
56861;DHT22;42744;51.094;3.490;2024-03-06T05:35:41;5.90;99.90
56861;DHT22;42744;51.094;3.490;2024-03-06T05:38:08;5.90;99.90
56861;DHT22;42744;51.094;3.490;2024-03-06T05:40:34;5.90;99.90
56861;DHT22;42744;51.094;3.490;2024-03-06T05:43:03;5.90;99.90
56861;DHT22;42744;51.094;3.490;2024-03-06T05:45:29;5.90;99.90
56861;DHT22;42744;51.094;3.490;2024-03-06T05:47:55;5.90;99.90
56861;DHT22;42744;51.094;3.490;2024-03-06T05:50:21;5.90;99.90
56861;DHT22;42744;51.094;3.490;2024-03-06T05:52:48;5.90;99.90
56861;DHT22;42744;51.094;3.490;2024-03-06T05:55:14;5.90;99.90
56861;DHT22;42744;51.094;3.490;2024-03-06T05:57:40;5.90;99.90
56861;DHT22;42744;51.094;3.490;2024-03-06T06:00:12;5.90;99.90
56861;DHT22;42744;51.094;3.490;2024-03-06T06:02:39;5.90;99.90
56861;DHT22;42744;51.094;3.490;2024-03-06T06:05:05;5.80;99.90
56861;DHT22;42744;51.094;3.490;2024-03-06T06:07:38;5.90;99.90
56861;DHT22;42744;51.094;3.490;2024-03-06T06:10:05;5.90;99.90
56861;DHT22;42744;51.094;3.490;2024-03-06T06:12:35;5.90;99.90
56861;DHT22;42744;51.094;3.490;2024-03-06T06:15:01;5.90;99.90
56861;DHT22;42744;51.094;3.490;2024-03-06T06:17:28;5.90;99.90
56861;DHT22;42744;51.094;3.490;2024-03-06T06:19:54;5.80;99.90
56861;DHT22;42744;51.094;3.490;2024-03-06T06:22:20;5.80;99.90
56861;DHT22;42744;51.094;3.490;2024-03-06T06:24:46;5.80;99.90
56861;DHT22;42744;51.094;3.490;2024-03-06T06:27:12;5.90;99.90
56861;DHT22;42744;51.094;3.490;2024-03-06T06:29:38;5.90;99.90
56861;DHT22;42744;51.094;3.490;2024-03-06T06:32:05;5.80;99.90
56861;DHT22;42744;51.094;3.490;2024-03-06T06:34:31;5.80;99.90
56861;DHT22;42744;51.094;3.490;2024-03-06T06:36:57;5.80;99.90
56861;DHT22;42744;51.094;3.490;2024-03-06T06:39:23;5.90;99.90
56861;DHT22;42744;51.094;3.490;2024-03-06T06:41:49;5.90;99.90
56861;DHT22;42744;51.094;3.490;2024-03-06T06:44:15;5.90;99.90
56861;DHT22;42744;51.094;3.490;2024-03-06T06:46:42;5.90;99.90
56861;DHT22;42744;51.094;3.490;2024-03-06T06:49:08;5.90;99.90
56861;DHT22;42744;51.094;3.490;2024-03-06T06:51:34;5.90;99.90
56861;DHT22;42744;51.094;3.490;2024-03-06T06:54:01;5.90;99.90
56861;DHT22;42744;51.094;3.490;2024-03-06T06:56:30;5.90;99.90
56861;DHT22;42744;51.094;3.490;2024-03-06T06:58:56;5.90;99.90
56861;DHT22;42744;51.094;3.490;2024-03-06T07:01:23;5.90;99.90
56861;DHT22;42744;51.094;3.490;2024-03-06T07:03:49;5.90;99.90
56861;DHT22;42744;51.094;3.490;2024-03-06T07:06:16;6.00;99.90
56861;DHT22;42744;51.094;3.490;2024-03-06T07:08:42;5.90;99.90
56861;DHT22;42744;51.094;3.490;2024-03-06T07:11:08;6.00;99.90
56861;DHT22;42744;51.094;3.490;2024-03-06T07:13:37;6.00;99.90
56861;DHT22;42744;51.094;3.490;2024-03-06T07:16:04;6.00;99.90
56861;DHT22;42744;51.094;3.490;2024-03-06T07:18:30;6.10;99.90
56861;DHT22;42744;51.094;3.490;2024-03-06T07:20:59;6.10;99.90
56861;DHT22;42744;51.094;3.490;2024-03-06T07:23:25;6.10;99.90
56861;DHT22;42744;51.094;3.490;2024-03-06T07:25:51;6.20;99.90
56861;DHT22;42744;51.094;3.490;2024-03-06T07:28:17;6.20;99.90
56861;DHT22;42744;51.094;3.490;2024-03-06T07:30:43;6.20;99.90
56861;DHT22;42744;51.094;3.490;2024-03-06T07:33:09;6.20;99.90
56861;DHT22;42744;51.094;3.490;2024-03-06T07:35:35;6.20;99.90
56861;DHT22;42744;51.094;3.490;2024-03-06T07:38:02;6.20;99.90
56861;DHT22;42744;51.094;3.490;2024-03-06T07:40:32;6.20;99.90
56861;DHT22;42744;51.094;3.490;2024-03-06T07:42:58;6.20;99.90
56861;DHT22;42744;51.094;3.490;2024-03-06T07:45:26;6.20;99.90
56861;DHT22;42744;51.094;3.490;2024-03-06T07:47:53;6.20;99.90
56861;DHT22;42744;51.094;3.490;2024-03-06T07:50:22;6.30;99.90
56861;DHT22;42744;51.094;3.490;2024-03-06T07:52:48;6.30;99.90
56861;DHT22;42744;51.094;3.490;2024-03-06T07:55:14;6.30;99.90
56861;DHT22;42744;51.094;3.490;2024-03-06T07:57:41;6.40;99.90
56861;DHT22;42744;51.094;3.490;2024-03-06T08:00:07;6.40;99.90
56861;DHT22;42744;51.094;3.490;2024-03-06T08:02:41;6.40;99.90
56861;DHT22;42744;51.094;3.490;2024-03-06T08:05:12;6.40;99.90
56861;DHT22;42744;51.094;3.490;2024-03-06T08:07:39;6.40;99.90
56861;DHT22;42744;51.094;3.490;2024-03-06T08:10:12;6.40;99.90
56861;DHT22;42744;51.094;3.490;2024-03-06T08:12:43;6.40;99.90
56861;DHT22;42744;51.094;3.490;2024-03-06T08:15:11;6.40;99.90
56861;DHT22;42744;51.094;3.490;2024-03-06T08:17:42;6.50;99.90
56861;DHT22;42744;51.094;3.490;2024-03-06T08:20:10;6.50;99.90
56861;DHT22;42744;51.094;3.490;2024-03-06T08:22:38;6.50;99.90
56861;DHT22;42744;51.094;3.490;2024-03-06T08:27:39;6.60;99.90
56861;DHT22;42744;51.094;3.490;2024-03-06T08:30:07;6.60;99.90
56861;DHT22;42744;51.094;3.490;2024-03-06T08:32:34;6.60;99.90
56861;DHT22;42744;51.094;3.490;2024-03-06T08:35:11;6.70;99.90
56861;DHT22;42744;51.094;3.490;2024-03-06T08:37:38;6.70;99.90
56861;DHT22;42744;51.094;3.490;2024-03-06T08:40:06;6.60;99.90
56861;DHT22;42744;51.094;3.490;2024-03-06T08:42:43;6.70;99.90
56861;DHT22;42744;51.094;3.490;2024-03-06T08:45:10;6.80;99.90
56861;DHT22;42744;51.094;3.490;2024-03-06T08:47:36;6.80;99.90
56861;DHT22;42744;51.094;3.490;2024-03-06T08:50:03;6.90;99.90
56861;DHT22;42744;51.094;3.490;2024-03-06T08:52:30;6.90;99.90
56861;DHT22;42744;51.094;3.490;2024-03-06T08:54:58;6.90;99.90
56861;DHT22;42744;51.094;3.490;2024-03-06T08:57:24;7.00;99.90
56861;DHT22;42744;51.094;3.490;2024-03-06T08:59:59;7.00;99.90
56861;DHT22;42744;51.094;3.490;2024-03-06T09:02:26;7.00;99.90
56861;DHT22;42744;51.094;3.490;2024-03-06T09:04:52;7.10;99.90
56861;DHT22;42744;51.094;3.490;2024-03-06T09:07:19;7.10;99.90
56861;DHT22;42744;51.094;3.490;2024-03-06T09:09:49;7.20;99.90
56861;DHT22;42744;51.094;3.490;2024-03-06T09:12:17;7.20;99.90
56861;DHT22;42744;51.094;3.490;2024-03-06T09:14:43;7.20;99.90
56861;DHT22;42744;51.094;3.490;2024-03-06T09:17:11;7.30;99.90
56861;DHT22;42744;51.094;3.490;2024-03-06T09:19:41;7.40;99.90
56861;DHT22;42744;51.094;3.490;2024-03-06T09:22:07;7.40;99.90
56861;DHT22;42744;51.094;3.490;2024-03-06T09:24:33;7.50;99.90
56861;DHT22;42744;51.094;3.490;2024-03-06T09:27:05;7.60;99.90
56861;DHT22;42744;51.094;3.490;2024-03-06T09:29:34;7.70;99.90
56861;DHT22;42744;51.094;3.490;2024-03-06T09:32:06;7.70;99.90
56861;DHT22;42744;51.094;3.490;2024-03-06T09:34:43;7.90;99.90
56861;DHT22;42744;51.094;3.490;2024-03-06T09:37:10;7.90;99.90
56861;DHT22;42744;51.094;3.490;2024-03-06T09:39:36;8.00;99.90
56861;DHT22;42744;51.094;3.490;2024-03-06T09:42:09;8.00;99.90
56861;DHT22;42744;51.094;3.490;2024-03-06T09:44:37;8.00;99.90
56861;DHT22;42744;51.094;3.490;2024-03-06T09:47:03;8.00;99.90
56861;DHT22;42744;51.094;3.490;2024-03-06T09:49:31;8.20;99.90
56861;DHT22;42744;51.094;3.490;2024-03-06T09:51:58;8.30;99.90
56861;DHT22;42744;51.094;3.490;2024-03-06T09:54:25;8.30;99.90
56861;DHT22;42744;51.094;3.490;2024-03-06T09:56:52;8.50;99.90
56861;DHT22;42744;51.094;3.490;2024-03-06T09:59:20;8.90;99.90
56861;DHT22;42744;51.094;3.490;2024-03-06T10:01:57;9.10;99.90
56861;DHT22;42744;51.094;3.490;2024-03-06T10:04:27;9.30;99.90
56861;DHT22;42744;51.094;3.490;2024-03-06T10:06:55;9.30;99.90
56861;DHT22;42744;51.094;3.490;2024-03-06T10:09:21;9.20;99.90
56861;DHT22;42744;51.094;3.490;2024-03-06T10:11:48;9.20;99.90
56861;DHT22;42744;51.094;3.490;2024-03-06T10:14:14;9.30;99.90
56861;DHT22;42744;51.094;3.490;2024-03-06T10:16:58;9.30;99.90
56861;DHT22;42744;51.094;3.490;2024-03-06T10:19:27;9.40;99.90
56861;DHT22;42744;51.094;3.490;2024-03-06T10:21:53;9.50;99.90
56861;DHT22;42744;51.094;3.490;2024-03-06T10:24:24;9.50;99.90
56861;DHT22;42744;51.094;3.490;2024-03-06T10:26:51;9.50;99.90
56861;DHT22;42744;51.094;3.490;2024-03-06T10:29:21;9.30;99.90
56861;DHT22;42744;51.094;3.490;2024-03-06T10:31:48;9.30;99.90
56861;DHT22;42744;51.094;3.490;2024-03-06T10:34:15;9.40;99.90
56861;DHT22;42744;51.094;3.490;2024-03-06T10:36:42;9.50;99.90
56861;DHT22;42744;51.094;3.490;2024-03-06T10:39:14;9.90;99.90
56861;DHT22;42744;51.094;3.490;2024-03-06T10:41:43;10.40;99.90
56861;DHT22;42744;51.094;3.490;2024-03-06T10:44:12;10.80;99.90
56861;DHT22;42744;51.094;3.490;2024-03-06T10:46:44;10.80;99.90
56861;DHT22;42744;51.094;3.490;2024-03-06T10:49:14;10.90;99.90
56861;DHT22;42744;51.094;3.490;2024-03-06T10:51:42;11.30;99.90
56861;DHT22;42744;51.094;3.490;2024-03-06T10:54:09;11.30;99.90
56861;DHT22;42744;51.094;3.490;2024-03-06T10:56:39;11.10;99.90
56861;DHT22;42744;51.094;3.490;2024-03-06T10:59:10;10.90;99.90
56861;DHT22;42744;51.094;3.490;2024-03-06T11:01:37;10.70;99.90
56861;DHT22;42744;51.094;3.490;2024-03-06T11:04:05;10.60;99.90
56861;DHT22;42744;51.094;3.490;2024-03-06T11:06:32;10.50;99.90
56861;DHT22;42744;51.094;3.490;2024-03-06T11:09:00;10.50;99.90
56861;DHT22;42744;51.094;3.490;2024-03-06T11:11:26;10.30;99.90
56861;DHT22;42744;51.094;3.490;2024-03-06T11:13:56;10.30;99.90
56861;DHT22;42744;51.094;3.490;2024-03-06T11:16:29;10.70;99.90
56861;DHT22;42744;51.094;3.490;2024-03-06T11:19:06;11.30;99.90
56861;DHT22;42744;51.094;3.490;2024-03-06T11:21:33;11.60;99.90
56861;DHT22;42744;51.094;3.490;2024-03-06T11:24:13;11.60;99.90
56861;DHT22;42744;51.094;3.490;2024-03-06T11:26:43;11.60;99.90
56861;DHT22;42744;51.094;3.490;2024-03-06T11:29:09;11.50;99.90
56861;DHT22;42744;51.094;3.490;2024-03-06T11:31:35;11.30;99.90
56861;DHT22;42744;51.094;3.490;2024-03-06T11:34:04;11.10;99.90
56861;DHT22;42744;51.094;3.490;2024-03-06T11:36:30;11.00;99.90
56861;DHT22;42744;51.094;3.490;2024-03-06T11:41:28;10.90;99.90
56861;DHT22;42744;51.094;3.490;2024-03-06T11:43:56;10.90;99.90
56861;DHT22;42744;51.094;3.490;2024-03-06T11:46:23;11.00;99.90
56861;DHT22;42744;51.094;3.490;2024-03-06T11:48:55;11.30;99.90
56861;DHT22;42744;51.094;3.490;2024-03-06T11:51:24;11.20;99.90
56861;DHT22;42744;51.094;3.490;2024-03-06T11:53:52;11.10;99.90
56861;DHT22;42744;51.094;3.490;2024-03-06T11:56:19;11.00;99.90
56861;DHT22;42744;51.094;3.490;2024-03-06T11:58:47;11.00;99.90
56861;DHT22;42744;51.094;3.490;2024-03-06T12:01:14;10.90;99.90
56861;DHT22;42744;51.094;3.490;2024-03-06T12:03:41;11.00;99.90
56861;DHT22;42744;51.094;3.490;2024-03-06T12:06:07;11.00;99.90
56861;DHT22;42744;51.094;3.490;2024-03-06T12:08:33;11.00;99.90
56861;DHT22;42744;51.094;3.490;2024-03-06T12:11:04;10.90;99.90
56861;DHT22;42744;51.094;3.490;2024-03-06T12:13:31;11.00;99.90
56861;DHT22;42744;51.094;3.490;2024-03-06T12:15:57;11.00;99.90
56861;DHT22;42744;51.094;3.490;2024-03-06T12:18:24;10.90;99.90
56861;DHT22;42744;51.094;3.490;2024-03-06T12:20:50;11.00;99.90
56861;DHT22;42744;51.094;3.490;2024-03-06T12:23:23;10.90;99.90
56861;DHT22;42744;51.094;3.490;2024-03-06T12:26:05;11.10;99.90
56861;DHT22;42744;51.094;3.490;2024-03-06T12:28:32;11.80;99.90
56861;DHT22;42744;51.094;3.490;2024-03-06T12:31:02;12.60;99.90
56861;DHT22;42744;51.094;3.490;2024-03-06T12:33:28;13.20;99.90
56861;DHT22;42744;51.094;3.490;2024-03-06T12:36:05;13.20;99.90
56861;DHT22;42744;51.094;3.490;2024-03-06T12:38:32;12.90;99.90
56861;DHT22;42744;51.094;3.490;2024-03-06T12:40:59;12.70;99.90
56861;DHT22;42744;51.094;3.490;2024-03-06T12:43:26;12.60;99.90
56861;DHT22;42744;51.094;3.490;2024-03-06T12:45:52;12.60;99.90
56861;DHT22;42744;51.094;3.490;2024-03-06T12:48:24;12.70;99.90
56861;DHT22;42744;51.094;3.490;2024-03-06T12:50:51;13.20;99.90
56861;DHT22;42744;51.094;3.490;2024-03-06T12:53:21;13.80;99.90
56861;DHT22;42744;51.094;3.490;2024-03-06T12:55:47;14.30;99.90
56861;DHT22;42744;51.094;3.490;2024-03-06T12:58:14;14.50;99.90
56861;DHT22;42744;51.094;3.490;2024-03-06T13:00:40;14.50;99.90
56861;DHT22;42744;51.094;3.490;2024-03-06T13:03:07;14.90;99.90
56861;DHT22;42744;51.094;3.490;2024-03-06T13:05:33;15.10;99.90
56861;DHT22;42744;51.094;3.490;2024-03-06T13:07:59;15.30;99.90
56861;DHT22;42744;51.094;3.490;2024-03-06T13:10:25;15.80;99.90
56861;DHT22;42744;51.094;3.490;2024-03-06T13:12:51;15.80;99.90
56861;DHT22;42744;51.094;3.490;2024-03-06T13:15:18;15.50;99.90
56861;DHT22;42744;51.094;3.490;2024-03-06T13:17:43;15.20;99.90
56861;DHT22;42744;51.094;3.490;2024-03-06T13:20:10;14.80;99.90
56861;DHT22;42744;51.094;3.490;2024-03-06T13:22:38;14.60;99.90
56861;DHT22;42744;51.094;3.490;2024-03-06T13:25:04;14.30;99.90
56861;DHT22;42744;51.094;3.490;2024-03-06T13:27:30;13.90;99.90
56861;DHT22;42744;51.094;3.490;2024-03-06T13:29:57;13.50;99.90
56861;DHT22;42744;51.094;3.490;2024-03-06T13:32:24;13.10;99.90
56861;DHT22;42744;51.094;3.490;2024-03-06T13:34:50;13.10;99.90
56861;DHT22;42744;51.094;3.490;2024-03-06T13:37:16;13.10;99.90
56861;DHT22;42744;51.094;3.490;2024-03-06T13:39:42;13.20;99.90
56861;DHT22;42744;51.094;3.490;2024-03-06T13:42:08;13.00;99.90
56861;DHT22;42744;51.094;3.490;2024-03-06T13:44:37;12.90;99.90
56861;DHT22;42744;51.094;3.490;2024-03-06T13:47:03;12.90;99.90
56861;DHT22;42744;51.094;3.490;2024-03-06T13:49:40;12.80;99.90
56861;DHT22;42744;51.094;3.490;2024-03-06T13:52:08;12.70;99.90
56861;DHT22;42744;51.094;3.490;2024-03-06T13:54:39;12.60;99.90
56861;DHT22;42744;51.094;3.490;2024-03-06T13:57:09;12.50;99.90
56861;DHT22;42744;51.094;3.490;2024-03-06T13:59:35;12.40;99.90
56861;DHT22;42744;51.094;3.490;2024-03-06T14:02:01;12.30;99.90
56861;DHT22;42744;51.094;3.490;2024-03-06T14:04:29;12.30;99.90
56861;DHT22;42744;51.094;3.490;2024-03-06T14:06:56;12.20;99.90
56861;DHT22;42744;51.094;3.490;2024-03-06T14:09:25;12.60;99.90
56861;DHT22;42744;51.094;3.490;2024-03-06T14:11:53;13.10;99.90
56861;DHT22;42744;51.094;3.490;2024-03-06T14:14:20;13.30;99.90
56861;DHT22;42744;51.094;3.490;2024-03-06T14:16:46;13.60;99.90
56861;DHT22;42744;51.094;3.490;2024-03-06T14:19:12;13.70;99.90
56861;DHT22;42744;51.094;3.490;2024-03-06T14:21:39;14.10;99.90
56861;DHT22;42744;51.094;3.490;2024-03-06T14:24:05;14.20;99.90
56861;DHT22;42744;51.094;3.490;2024-03-06T14:26:32;14.30;99.90
56861;DHT22;42744;51.094;3.490;2024-03-06T14:29:00;14.00;99.90
56861;DHT22;42744;51.094;3.490;2024-03-06T14:31:28;13.70;99.90
56861;DHT22;42744;51.094;3.490;2024-03-06T14:33:54;13.60;99.90
56861;DHT22;42744;51.094;3.490;2024-03-06T14:36:20;13.50;99.90
56861;DHT22;42744;51.094;3.490;2024-03-06T14:38:51;13.20;99.90
56861;DHT22;42744;51.094;3.490;2024-03-06T14:41:19;13.30;99.90
56861;DHT22;42744;51.094;3.490;2024-03-06T14:43:46;13.40;99.90
56861;DHT22;42744;51.094;3.490;2024-03-06T14:46:12;13.50;99.90
56861;DHT22;42744;51.094;3.490;2024-03-06T14:48:39;13.30;99.90
56861;DHT22;42744;51.094;3.490;2024-03-06T14:51:06;13.20;99.90
56861;DHT22;42744;51.094;3.490;2024-03-06T14:53:32;13.00;99.90
56861;DHT22;42744;51.094;3.490;2024-03-06T14:55:58;13.10;99.90
56861;DHT22;42744;51.094;3.490;2024-03-06T14:58:24;13.20;99.90
56861;DHT22;42744;51.094;3.490;2024-03-06T15:00:50;13.30;99.90
56861;DHT22;42744;51.094;3.490;2024-03-06T15:03:17;13.30;99.90
56861;DHT22;42744;51.094;3.490;2024-03-06T15:05:43;13.50;99.90
56861;DHT22;42744;51.094;3.490;2024-03-06T15:08:10;13.60;99.90
56861;DHT22;42744;51.094;3.490;2024-03-06T15:10:37;13.60;99.90
56861;DHT22;42744;51.094;3.490;2024-03-06T15:13:03;13.60;99.90
56861;DHT22;42744;51.094;3.490;2024-03-06T15:15:29;13.60;99.90
56861;DHT22;42744;51.094;3.490;2024-03-06T15:17:57;13.50;99.90
56861;DHT22;42744;51.094;3.490;2024-03-06T15:20:23;13.40;99.90
56861;DHT22;42744;51.094;3.490;2024-03-06T15:22:49;13.40;99.90
56861;DHT22;42744;51.094;3.490;2024-03-06T15:25:17;13.40;99.90
56861;DHT22;42744;51.094;3.490;2024-03-06T15:27:43;13.20;99.90
56861;DHT22;42744;51.094;3.490;2024-03-06T15:30:10;13.20;99.90
56861;DHT22;42744;51.094;3.490;2024-03-06T15:32:38;13.10;99.90
56861;DHT22;42744;51.094;3.490;2024-03-06T15:35:04;13.00;99.90
56861;DHT22;42744;51.094;3.490;2024-03-06T15:37:30;13.00;99.90
56861;DHT22;42744;51.094;3.490;2024-03-06T15:39:57;13.00;99.90
56861;DHT22;42744;51.094;3.490;2024-03-06T15:42:24;13.00;99.90
56861;DHT22;42744;51.094;3.490;2024-03-06T15:44:51;12.90;99.90